Time;durP1;ratioP1;P1;durP2;ratioP2;P2;SDS_P1;SDS_P2;PMS_P1;PMS_P2;Temp;Humidity;BMP_temperature;BMP_pressure;BME280_temperature;BME280_humidity;BME280_pressure;Samples;Min_cycle;Max_cycle;Signal;HPM_P1;HPM_P2
2022/01/14 00:00:11;;;;;;;53.73;23.87;;;2.90;99.90;;;;;;10477281;28;20033;-86
2022/01/14 00:05:12;;;;;;;57.23;25.77;;;2.90;99.90;;;;;;10452945;28;20112;-85
2022/01/14 00:10:12;;;;;;;49.70;23.27;;;2.90;99.90;;;;;;10489166;28;20140;-85
2022/01/14 00:15:26;;;;;;;53.00;24.43;;;2.90;99.90;;;;;;10453603;28;20553;-84
2022/01/14 00:20:28;;;;;;;56.80;28.60;;;2.90;99.90;;;;;;10446869;28;20052;-85
2022/01/14 00:35:51;;;;;;;44.37;20.00;;;2.90;99.90;;;;;;10453685;28;20037;-84
2022/01/14 00:40:52;;;;;;;51.57;23.87;;;2.90;99.90;;;;;;10454647;28;20587;-83
2022/01/14 00:45:55;;;;;;;48.33;23.50;;;2.80;99.90;;;;;;10452421;28;20500;-84
2022/01/14 00:50:56;;;;;;;50.70;24.80;;;2.80;99.90;;;;;;10453313;28;20070;-84
2022/01/14 00:56:06;;;;;;;45.20;22.83;;;2.80;99.90;;;;;;10463994;28;20465;-85
2022/01/14 01:01:07;;;;;;;50.03;24.00;;;2.80;99.90;;;;;;10455496;28;20460;-84
2022/01/14 01:06:08;;;;;;;50.53;25.50;;;2.80;99.90;;;;;;10434425;28;20048;-84
2022/01/14 01:11:11;;;;;;;53.33;26.43;;;2.80;99.90;;;;;;10451736;28;20056;-84
2022/01/14 01:16:11;;;;;;;49.03;23.60;;;2.70;99.90;;;;;;10460948;28;20095;-83
2022/01/14 01:21:12;;;;;;;61.47;29.17;;;2.70;99.90;;;;;;10451482;28;20036;-85
2022/01/14 01:26:19;;;;;;;53.57;25.13;;;2.70;99.90;;;;;;10432659;28;20041;-85
2022/01/14 01:31:35;;;;;;;51.93;24.80;;;2.70;99.90;;;;;;10454490;28;20128;-85
2022/01/14 01:36:38;;;;;;;55.13;24.50;;;2.70;99.90;;;;;;10453248;28;20064;-85
2022/01/14 01:41:41;;;;;;;51.27;22.37;;;2.70;99.90;;;;;;10473773;28;20028;-85
2022/01/14 01:46:45;;;;;;;63.17;26.40;;;2.80;99.90;;;;;;10466313;28;20853;-84
2022/01/14 01:51:49;;;;;;;61.20;28.17;;;2.70;99.90;;;;;;10450889;28;20111;-85
2022/01/14 01:56:50;;;;;;;56.20;26.17;;;2.70;99.90;;;;;;10450159;28;20435;-85
2022/01/14 02:01:52;;;;;;;65.10;28.90;;;2.70;99.90;;;;;;10447980;28;20037;-85
2022/01/14 02:06:54;;;;;;;65.40;31.10;;;2.70;99.90;;;;;;10450393;28;20021;-85
2022/01/14 02:11:57;;;;;;;68.47;29.30;;;2.70;99.90;;;;;;10430792;28;20076;-85
2022/01/14 02:17:16;;;;;;;72.03;30.40;;;2.70;99.90;;;;;;10449583;28;20056;-84
2022/01/14 02:22:17;;;;;;;69.63;31.97;;;2.70;99.90;;;;;;10453498;28;20044;-85
2022/01/14 02:27:17;;;;;;;62.77;28.07;;;2.60;99.90;;;;;;10465302;28;20025;-86
2022/01/14 02:32:18;;;;;;;61.43;26.27;;;2.60;99.90;;;;;;10448534;28;20025;-85
2022/01/14 02:37:20;;;;;;;56.00;23.97;;;2.60;99.90;;;;;;10448312;28;20036;-85
2022/01/14 02:42:20;;;;;;;59.90;25.90;;;2.60;99.90;;;;;;10448759;28;20863;-85
2022/01/14 02:47:21;;;;;;;62.23;26.23;;;2.60;99.90;;;;;;10447665;28;20032;-85
2022/01/14 02:52:41;;;;;;;64.03;29.37;;;2.60;99.90;;;;;;10448791;28;20021;-85
2022/01/14 02:57:46;;;;;;;64.60;26.77;;;2.60;99.90;;;;;;10448455;28;20031;-86
2022/01/14 03:02:50;;;;;;;61.67;27.83;;;2.60;99.90;;;;;;10448154;28;20060;-85
2022/01/14 03:07:51;;;;;;;61.53;26.20;;;2.60;99.90;;;;;;10448273;28;20037;-84
2022/01/14 03:12:51;;;;;;;58.17;26.63;;;2.60;99.90;;;;;;10448242;28;20045;-85
2022/01/14 03:17:52;;;;;;;59.47;26.53;;;2.60;99.90;;;;;;10448583;28;20126;-85
2022/01/14 03:23:03;;;;;;;60.63;26.33;;;2.50;99.90;;;;;;10448908;28;20052;-85
2022/01/14 03:28:04;;;;;;;58.83;25.27;;;2.50;99.90;;;;;;10429557;28;20445;-85
2022/01/14 03:33:05;;;;;;;55.67;24.47;;;2.50;99.90;;;;;;10446767;28;20033;-84
2022/01/14 03:38:06;;;;;;;53.70;24.77;;;2.50;99.90;;;;;;10447937;28;20049;-85
2022/01/14 03:43:06;;;;;;;62.37;26.13;;;2.50;99.90;;;;;;10447329;28;20045;-85
2022/01/14 03:48:08;;;;;;;54.30;25.37;;;2.50;99.90;;;;;;10448433;28;20032;-85
2022/01/14 03:53:11;;;;;;;57.90;27.53;;;2.50;99.90;;;;;;10455233;28;20056;-84
2022/01/14 03:58:11;;;;;;;55.43;24.97;;;2.50;99.90;;;;;;10453361;28;20017;-84
2022/01/14 04:03:12;;;;;;;56.00;24.23;;;2.50;99.90;;;;;;10454841;28;20397;-86
2022/01/14 04:08:13;;;;;;;52.80;24.53;;;2.40;99.90;;;;;;10454755;28;20467;-86
2022/01/14 04:13:21;;;;;;;61.53;27.40;;;2.40;99.90;;;;;;10453323;28;20059;-86
2022/01/14 04:18:23;;;;;;;83.97;34.97;;;2.50;99.90;;;;;;10454377;28;20585;-86
2022/01/14 04:23:24;;;;;;;57.40;25.53;;;2.40;99.90;;;;;;10452540;28;20041;-87
2022/01/14 04:28:27;;;;;;;59.83;26.40;;;2.40;99.90;;;;;;10453341;28;20036;-87
2022/01/14 04:33:30;;;;;;;54.63;25.67;;;2.40;99.90;;;;;;10451889;28;20033;-87
2022/01/14 04:38:32;;;;;;;77.93;31.10;;;2.40;99.90;;;;;;10451898;28;20468;-85
2022/01/14 04:43:32;;;;;;;78.47;35.70;;;2.40;99.90;;;;;;10453138;28;20044;-86
2022/01/14 04:48:36;;;;;;;76.77;31.97;;;2.30;99.90;;;;;;10435306;28;20036;-87
2022/01/14 04:53:38;;;;;;;74.87;32.40;;;2.40;99.90;;;;;;10453500;28;20464;-84
2022/01/14 04:58:39;;;;;;;71.50;31.00;;;2.30;99.90;;;;;;10452346;28;20065;-85
2022/01/14 05:03:39;;;;;;;73.93;31.60;;;2.30;99.90;;;;;;10447011;28;20115;-85
2022/01/14 05:08:40;;;;;;;72.93;32.63;;;2.30;99.90;;;;;;10436945;28;20036;-87
2022/01/14 05:13:41;;;;;;;83.40;32.23;;;2.30;99.90;;;;;;10449281;28;20423;-87
2022/01/14 05:18:42;;;;;;;80.53;33.93;;;2.30;99.90;;;;;;10437743;28;20029;-88
2022/01/14 05:23:43;;;;;;;78.53;32.80;;;2.30;99.90;;;;;;10404882;28;20044;-87
2022/01/14 05:28:43;;;;;;;79.20;34.10;;;2.30;99.90;;;;;;10437064;28;20504;-87
2022/01/14 05:33:46;;;;;;;80.80;32.43;;;2.30;99.90;;;;;;10448576;28;20111;-86
2022/01/14 05:38:47;;;;;;;71.70;28.93;;;2.30;99.90;;;;;;10451418;28;20021;-86
2022/01/14 05:43:48;;;;;;;95.47;40.77;;;2.20;99.90;;;;;;10451484;28;20037;-86
2022/01/14 05:48:48;;;;;;;87.97;35.47;;;2.20;99.90;;;;;;10449979;28;20373;-87
2022/01/14 05:53:49;;;;;;;89.43;35.20;;;2.20;99.90;;;;;;10441363;28;20075;-86
2022/01/14 05:58:50;;;;;;;73.07;28.73;;;2.20;99.90;;;;;;10413634;28;20104;-85
2022/01/14 06:03:51;;;;;;;72.80;29.37;;;2.20;99.90;;;;;;10407837;28;20037;-85
2022/01/14 06:08:52;;;;;;;59.30;26.80;;;2.10;99.90;;;;;;10408990;28;20030;-87
2022/01/14 06:13:53;;;;;;;65.63;25.17;;;2.20;99.90;;;;;;10391040;28;20096;-83
2022/01/14 06:18:54;;;;;;;66.13;26.80;;;2.10;99.90;;;;;;10409978;28;20033;-85
2022/01/14 06:23:55;;;;;;;59.40;22.13;;;2.10;99.90;;;;;;10408898;28;20822;-85
2022/01/14 06:28:55;;;;;;;67.27;27.27;;;2.10;99.90;;;;;;10408513;28;20151;-84
2022/01/14 06:33:56;;;;;;;57.73;25.20;;;2.10;99.90;;;;;;10407227;28;20028;-85
2022/01/14 06:38:57;;;;;;;69.20;26.47;;;2.10;99.90;;;;;;10409158;28;20037;-84
2022/01/14 06:43:58;;;;;;;85.43;34.00;;;2.10;99.90;;;;;;10390549;28;20033;-84
2022/01/14 06:48:58;;;;;;;97.67;39.50;;;2.10;99.90;;;;;;10408301;28;20040;-85
2022/01/14 06:53:59;;;;;;;84.17;34.73;;;2.10;99.90;;;;;;10407998;28;20030;-84
2022/01/14 06:59:00;;;;;;;87.70;35.13;;;2.10;99.90;;;;;;10407847;28;20353;-85
2022/01/14 07:04:00;;;;;;;86.40;33.50;;;2.10;99.90;;;;;;10408192;28;20044;-85
2022/01/14 07:09:02;;;;;;;93.87;36.80;;;2.10;99.90;;;;;;10407721;28;20477;-85
2022/01/14 07:14:06;;;;;;;81.63;31.37;;;2.00;99.90;;;;;;10407165;28;20060;-85
2022/01/14 07:19:07;;;;;;;86.10;31.13;;;2.00;99.90;;;;;;10408099;28;20037;-85
2022/01/14 07:24:10;;;;;;;79.80;32.17;;;2.00;99.90;;;;;;10409905;28;20041;-85
2022/01/14 07:29:10;;;;;;;87.37;33.63;;;2.00;99.90;;;;;;10414968;28;20052;-86
2022/01/14 07:34:11;;;;;;;91.57;36.03;;;2.00;99.90;;;;;;10414985;28;20041;-84
2022/01/14 07:39:12;;;;;;;88.93;34.83;;;1.90;99.90;;;;;;10415033;28;20026;-85
2022/01/14 07:44:14;;;;;;;87.77;37.23;;;1.90;99.90;;;;;;10414863;28;20037;-84
2022/01/14 07:49:15;;;;;;;86.87;35.30;;;2.00;99.90;;;;;;10414296;28;20025;-84
2022/01/14 07:54:16;;;;;;;116.63;44.63;;;2.00;99.90;;;;;;10415329;28;20033;-85
2022/01/14 07:59:20;;;;;;;103.13;41.90;;;2.00;99.90;;;;;;10396323;28;20021;-86
2022/01/14 08:04:22;;;;;;;94.37;39.00;;;2.00;99.90;;;;;;10414316;28;20029;-86
2022/01/14 08:09:23;;;;;;;86.40;38.07;;;2.00;99.90;;;;;;10413831;28;20057;-84
2022/01/14 08:14:23;;;;;;;87.83;35.80;;;2.10;99.90;;;;;;10395553;28;20448;-84
2022/01/14 08:19:24;;;;;;;89.10;38.87;;;2.10;99.90;;;;;;10413477;28;20048;-84
2022/01/14 08:24:25;;;;;;;93.90;39.77;;;2.10;99.90;;;;;;10413804;28;20393;-85
2022/01/14 08:29:28;;;;;;;108.67;42.33;;;2.10;99.90;;;;;;10412967;28;20041;-85
2022/01/14 08:34:28;;;;;;;95.20;38.83;;;2.10;99.90;;;;;;10393878;28;20493;-84
2022/01/14 08:39:29;;;;;;;101.33;41.00;;;2.10;99.90;;;;;;10412830;28;20075;-85
2022/01/14 08:44:30;;;;;;;127.70;44.07;;;2.10;99.90;;;;;;10412419;28;20098;-85
2022/01/14 08:49:30;;;;;;;109.93;38.73;;;2.20;99.90;;;;;;10412175;28;20036;-84
2022/01/14 08:54:31;;;;;;;141.80;52.60;;;2.20;99.90;;;;;;10412171;28;20393;-85
2022/01/14 08:59:32;;;;;;;173.33;65.77;;;2.20;99.90;;;;;;10393876;28;20385;-85
2022/01/14 09:04:34;;;;;;;149.13;55.93;;;2.20;99.90;;;;;;10411798;28;20164;-84
2022/01/14 09:09:34;;;;;;;104.77;42.07;;;2.20;99.90;;;;;;10411510;28;20477;-85
2022/01/14 09:14:35;;;;;;;113.30;44.17;;;2.20;99.90;;;;;;10411127;28;20106;-85
2022/01/14 09:19:36;;;;;;;96.97;38.30;;;2.30;99.90;;;;;;10393644;28;20029;-85
2022/01/14 09:24:37;;;;;;;88.37;34.50;;;2.30;99.90;;;;;;10393049;28;20037;-84
2022/01/14 09:29:38;;;;;;;94.33;38.03;;;2.30;99.90;;;;;;10392703;28;20033;-85
2022/01/14 09:34:39;;;;;;;97.07;40.03;;;2.30;99.90;;;;;;10411156;28;20033;-84
2022/01/14 09:39:43;;;;;;;103.77;45.80;;;2.30;99.90;;;;;;10410063;28;20033;-85
2022/01/14 09:44:44;;;;;;;94.70;40.43;;;2.30;99.90;;;;;;10410080;28;20036;-85
2022/01/14 09:49:46;;;;;;;91.43;38.93;;;2.30;99.90;;;;;;10391576;28;20460;-84
2022/01/14 09:54:48;;;;;;;107.40;46.20;;;2.40;99.90;;;;;;10409897;28;20068;-85
2022/01/14 09:59:48;;;;;;;126.67;53.53;;;2.40;99.90;;;;;;10409522;28;20044;-85
2022/01/14 10:04:49;;;;;;;93.23;39.57;;;2.40;99.90;;;;;;10409035;28;20039;-85
2022/01/14 10:09:57;;;;;;;122.93;51.53;;;2.50;99.90;;;;;;10409483;28;20524;-86
2022/01/14 10:15:06;;;;;;;97.03;43.93;;;2.50;99.90;;;;;;10408159;28;20029;-85
2022/01/14 10:20:09;;;;;;;107.13;44.90;;;2.50;99.90;;;;;;10409413;28;20137;-85
2022/01/14 10:25:19;;;;;;;88.77;39.63;;;2.50;99.90;;;;;;10407918;28;20048;-85
2022/01/14 10:30:24;;;;;;;108.73;48.10;;;2.50;99.90;;;;;;10409082;28;20040;-86
2022/01/14 10:35:28;;;;;;;114.63;51.43;;;2.60;99.90;;;;;;10408882;28;20030;-85
2022/01/14 10:40:30;;;;;;;99.93;45.43;;;2.60;99.90;;;;;;10408818;28;20041;-84
2022/01/14 10:45:32;;;;;;;136.87;59.60;;;2.60;99.90;;;;;;10408795;28;20495;-85
2022/01/14 10:50:43;;;;;;;91.57;40.53;;;2.70;99.90;;;;;;10390530;28;20049;-84
2022/01/14 10:55:49;;;;;;;112.20;48.20;;;2.70;99.90;;;;;;10408030;28;20454;-85
2022/01/14 11:00:55;;;;;;;95.70;42.58;;;2.70;99.90;;;;;;10414152;28;20038;-85
2022/01/14 11:06:18;;;;;;;94.57;41.43;;;2.80;99.90;;;;;;10416707;28;20445;-84
2022/01/14 11:11:18;;;;;;;95.83;41.13;;;2.80;99.90;;;;;;10415704;28;20045;-85
2022/01/14 11:16:19;;;;;;;92.40;40.20;;;2.80;99.90;;;;;;10415879;28;20400;-85
2022/01/14 11:26:41;;;;;;;99.27;46.60;;;3.00;99.90;;;;;;10435331;28;20049;-85
2022/01/14 11:31:42;;;;;;;98.10;43.17;;;3.00;99.90;;;;;;10457005;28;20025;-85
2022/01/14 11:36:59;;;;;;;73.63;33.93;;;3.10;99.90;;;;;;10456934;28;20417;-84
2022/01/14 11:42:03;;;;;;;57.85;26.92;;;3.10;99.90;;;;;;10456521;28;20036;-85
2022/01/14 11:47:04;;;;;;;72.77;32.53;;;3.10;99.90;;;;;;10456349;28;20051;-85
2022/01/14 11:52:07;;;;;;;54.40;25.83;;;3.10;99.90;;;;;;10455891;28;20028;-85
2022/01/14 11:57:09;;;;;;;78.90;33.40;;;3.20;99.90;;;;;;10437401;28;20021;-84
2022/01/14 12:02:26;;;;;;;58.97;27.20;;;3.20;99.90;;;;;;10455788;28;20029;-84
2022/01/14 12:07:27;;;;;;;58.30;27.03;;;3.20;99.90;;;;;;10437134;28;20488;-84
2022/01/14 12:12:30;;;;;;;52.27;25.20;;;3.20;99.90;;;;;;10437226;28;20112;-85
2022/01/14 12:17:36;;;;;;;55.67;25.03;;;3.30;99.90;;;;;;10454632;28;20107;-85
2022/01/14 12:22:37;;;;;;;52.60;23.83;;;3.30;99.90;;;;;;10454709;28;20071;-86
2022/01/14 12:27:47;;;;;;;62.80;28.87;;;3.40;99.90;;;;;;10454390;28;20025;-86
2022/01/14 12:32:53;;;;;;;61.97;28.10;;;3.40;99.90;;;;;;10454907;28;20131;-85
2022/01/14 12:37:56;;;;;;;70.27;32.87;;;3.40;99.90;;;;;;10454724;28;20032;-85
2022/01/14 12:43:00;;;;;;;59.90;28.63;;;3.50;99.90;;;;;;10453750;28;20028;-85
2022/01/14 12:48:17;;;;;;;67.87;30.93;;;3.50;99.90;;;;;;10434002;28;20052;-85
2022/01/14 12:53:19;;;;;;;55.33;27.13;;;3.40;99.90;;;;;;10431093;28;20025;-85
2022/01/14 12:58:19;;;;;;;62.73;28.77;;;3.40;99.90;;;;;;10453604;28;20490;-85
2022/01/14 13:03:22;;;;;;;58.33;27.47;;;3.50;99.90;;;;;;10439251;28;20131;-86
2022/01/14 13:08:28;;;;;;;64.37;27.83;;;3.40;99.90;;;;;;10493282;28;20498;-84
2022/01/14 13:13:29;;;;;;;64.03;28.57;;;3.40;99.90;;;;;;10493106;28;20048;-85
2022/01/14 13:18:37;;;;;;;55.43;23.43;;;3.40;99.90;;;;;;10484481;28;20036;-84
2022/01/14 13:23:37;;;;;;;52.30;23.13;;;3.30;99.90;;;;;;10488323;28;20033;-82
2022/01/14 13:28:38;;;;;;;106.27;47.30;;;3.30;99.90;;;;;;10453503;28;20044;-84
2022/01/14 13:33:41;;;;;;;61.53;26.33;;;3.20;99.90;;;;;;10446129;28;20040;-86
2022/01/14 13:38:42;;;;;;;74.57;33.27;;;3.20;99.90;;;;;;10457281;28;20020;-85
2022/01/14 13:43:43;;;;;;;88.60;40.03;;;3.20;99.90;;;;;;10491878;28;20044;-84
2022/01/14 13:48:53;;;;;;;67.20;29.37;;;3.10;99.90;;;;;;10475153;28;20040;-84
2022/01/14 13:53:55;;;;;;;94.20;42.00;;;3.10;99.90;;;;;;10452092;28;20082;-84
2022/01/14 13:59:00;;;;;;;109.57;51.20;;;3.10;99.90;;;;;;10466677;28;20039;-85
2022/01/14 14:04:07;;;;;;;104.60;47.03;;;3.00;99.90;;;;;;10474183;28;20078;-83
2022/01/14 14:09:24;;;;;;;113.87;48.57;;;3.00;99.90;;;;;;10468271;28;20116;-86
2022/01/14 14:19:47;;;;;;;103.23;45.70;;;2.90;99.90;;;;;;10400673;28;20033;-85
2022/01/14 14:25:04;;;;;;;109.93;49.00;;;2.90;99.90;;;;;;10392567;28;20049;-85
2022/01/14 14:30:14;;;;;;;80.60;32.03;;;2.90;99.90;;;;;;10412801;28;20060;-87
2022/01/14 14:35:17;;;;;;;108.57;46.97;;;2.90;99.90;;;;;;10411156;28;20044;-85
2022/01/14 14:40:23;;;;;;;96.17;39.07;;;2.80;99.90;;;;;;10401080;28;20187;-85
2022/01/14 14:45:25;;;;;;;118.20;49.33;;;2.80;99.90;;;;;;10405243;28;20563;-84
2022/01/14 14:50:30;;;;;;;102.73;44.43;;;2.80;99.90;;;;;;10409242;28;20018;-87
2022/01/14 14:55:32;;;;;;;107.38;44.17;;;2.80;99.90;;;;;;10417415;28;20556;-86
2022/01/14 15:00:33;;;;;;;105.40;42.80;;;2.80;99.90;;;;;;10407654;28;20032;-87
2022/01/14 15:05:35;;;;;;;129.20;52.83;;;2.70;99.90;;;;;;10383467;28;20048;-84
2022/01/14 15:10:36;;;;;;;118.53;50.53;;;2.70;99.90;;;;;;10416641;28;20049;-83
2022/01/14 15:16:10;;;;;;;84.83;36.53;;;2.70;99.90;;;;;;10448591;28;20033;-84
2022/01/14 15:20:57;;;;;;;108.50;44.47;;;2.80;99.90;;;;;;10447347;28;20044;-86
2022/01/14 15:25:58;;;;;;;101.43;44.67;;;2.70;99.90;;;;;;10442145;28;20043;-84
2022/01/14 15:30:59;;;;;;;83.87;34.30;;;2.70;99.90;;;;;;10430918;28;20584;-85
2022/01/14 15:35:59;;;;;;;107.20;46.63;;;2.80;99.90;;;;;;10448311;28;20041;-83
2022/01/14 15:41:02;;;;;;;68.03;29.97;;;2.80;99.90;;;;;;10449621;28;20029;-84
2022/01/14 15:46:05;;;;;;;82.70;39.43;;;2.80;99.90;;;;;;10472217;28;20083;-85
2022/01/14 15:51:05;;;;;;;74.10;32.33;;;2.90;99.90;;;;;;10455526;28;20476;-82
2022/01/14 15:56:06;;;;;;;59.30;26.73;;;2.90;99.90;;;;;;10484931;28;20033;-81
2022/01/14 16:01:08;;;;;;;59.37;27.67;;;3.00;99.90;;;;;;10493388;28;20480;-84
2022/01/14 16:06:11;;;;;;;75.13;34.87;;;3.00;99.90;;;;;;10451029;28;20385;-82
2022/01/14 16:12:16;;;;;;;80.77;37.07;;;3.00;99.90;;;;;;10490368;28;20061;-85
2022/01/14 16:17:18;;;;;;;82.30;38.37;;;3.00;99.90;;;;;;10336235;28;20109;-85
2022/01/14 16:28:21;;;;;;;69.40;30.80;;;3.10;99.90;;;;;;10315948;28;20042;-82
2022/01/14 16:39:45;;;;;;;46.27;21.83;;;3.20;99.90;;;;;;10332987;28;20045;-83
2022/01/14 16:44:48;;;;;;;81.50;37.27;;;3.20;99.90;;;;;;10316157;28;20067;-82
2022/01/14 16:50:21;;;;;;;57.23;30.60;;;3.20;99.90;;;;;;10458450;28;20032;-85
2022/01/14 16:55:21;;;;;;;52.37;25.77;;;3.20;99.90;;;;;;10449856;28;20041;-84
2022/01/14 17:00:22;;;;;;;59.63;29.33;;;3.30;99.90;;;;;;10461853;28;20025;-83
2022/01/14 17:05:23;;;;;;;63.73;31.73;;;3.40;99.90;;;;;;10467091;28;20033;-85
2022/01/14 17:10:25;;;;;;;61.83;29.50;;;3.40;99.90;;;;;;10461950;28;20124;-85
2022/01/14 17:15:26;;;;;;;45.63;22.50;;;3.40;99.90;;;;;;10452910;28;20124;-83
2022/01/14 17:20:27;;;;;;;55.67;26.53;;;3.40;99.90;;;;;;10444558;28;20453;-82
2022/01/14 17:25:27;;;;;;;113.57;45.00;;;3.50;99.90;;;;;;10449527;28;20041;-85
2022/01/14 17:30:32;;;;;;;92.20;37.07;;;3.50;99.90;;;;;;10453083;28;20484;-83
2022/01/14 17:35:33;;;;;;;66.33;26.40;;;3.50;99.90;;;;;;10456250;28;20579;-83
2022/01/14 17:40:34;;;;;;;58.77;26.43;;;3.50;99.90;;;;;;10457482;28;20032;-84
2022/01/14 17:45:35;;;;;;;56.43;25.53;;;3.50;99.90;;;;;;10469415;28;20040;-83
2022/01/14 17:50:39;;;;;;;96.63;42.83;;;3.50;99.90;;;;;;10441330;28;20086;-85
2022/01/14 17:55:40;;;;;;;59.23;26.40;;;3.50;99.90;;;;;;10436690;28;20116;-84
2022/01/14 18:01:06;;;;;;;;;;;;;;;;;;;;;
2022/01/14 18:06:17;;;;;;;72.50;30.73;;;3.40;99.90;;;;;;10436726;28;20408;-85
2022/01/14 18:11:23;;;;;;;61.73;27.33;;;3.40;99.90;;;;;;10436485;28;20404;-86
2022/01/14 18:16:25;;;;;;;68.47;30.40;;;3.40;99.90;;;;;;10443624;28;20021;-85
2022/01/14 18:21:26;;;;;;;49.03;23.07;;;3.40;99.90;;;;;;10461393;28;20036;-85
2022/01/14 18:26:30;;;;;;;44.83;21.13;;;3.40;99.90;;;;;;10467197;28;20041;-85
2022/01/14 18:31:32;;;;;;;51.93;22.63;;;3.50;99.90;;;;;;10454509;28;20465;-87
2022/01/14 18:36:32;;;;;;;42.00;19.30;;;3.50;99.90;;;;;;10447489;28;20427;-87
2022/01/14 18:41:34;;;;;;;44.93;18.60;;;3.50;99.90;;;;;;10429167;28;20029;-85
2022/01/14 18:46:35;;;;;;;36.33;17.63;;;3.60;99.90;;;;;;10430399;28;20516;-84
2022/01/14 18:51:37;;;;;;;32.23;15.57;;;3.60;99.90;;;;;;10430772;28;20069;-85
2022/01/14 18:56:38;;;;;;;40.40;17.20;;;3.60;99.90;;;;;;10447470;28;20068;-86
2022/01/14 19:01:42;;;;;;;42.87;18.90;;;3.70;99.90;;;;;;10442501;28;20029;-85
2022/01/14 19:06:42;;;;;;;37.97;15.77;;;3.70;99.90;;;;;;10430144;28;20059;-87
2022/01/14 19:11:44;;;;;;;31.93;14.47;;;3.70;99.90;;;;;;10433308;28;20070;-87
2022/01/14 19:16:45;;;;;;;35.57;14.60;;;3.70;99.90;;;;;;10423026;28;20032;-87
2022/01/14 19:21:46;;;;;;;29.90;14.00;;;3.70;99.90;;;;;;10444157;28;20369;-87
2022/01/14 19:26:47;;;;;;;28.40;13.60;;;3.70;99.90;;;;;;10435220;28;20034;-87
2022/01/14 19:31:48;;;;;;;34.43;14.43;;;3.70;99.90;;;;;;10454774;28;20673;-86
2022/01/14 19:36:49;;;;;;;22.77;12.13;;;3.70;99.90;;;;;;10452057;28;20029;-85
2022/01/14 19:41:51;;;;;;;30.07;14.00;;;3.60;99.90;;;;;;10442770;28;20041;-86
2022/01/14 19:46:52;;;;;;;27.80;11.47;;;3.70;99.90;;;;;;10434165;28;20611;-87
2022/01/14 19:51:53;;;;;;;26.00;11.73;;;3.70;99.90;;;;;;10424215;28;20087;-86
2022/01/14 19:56:56;;;;;;;27.17;10.70;;;3.70;99.90;;;;;;10438635;28;20033;-86
2022/01/14 20:01:58;;;;;;;24.87;11.73;;;3.70;99.90;;;;;;10442413;28;20090;-86
2022/01/14 20:06:59;;;;;;;23.93;10.77;;;3.70;99.90;;;;;;10444796;28;20040;-86
2022/01/14 20:12:00;;;;;;;30.93;11.73;;;3.60;99.90;;;;;;10453897;28;20592;-86
2022/01/14 20:17:00;;;;;;;22.80;11.07;;;3.50;99.90;;;;;;10449053;28;20086;-85
2022/01/14 20:22:01;;;;;;;25.33;12.37;;;3.40;99.90;;;;;;10435534;28;20044;-88
2022/01/14 20:27:02;;;;;;;33.77;11.90;;;3.40;99.90;;;;;;10456750;28;20045;-88
2022/01/14 20:32:03;;;;;;;26.03;10.73;;;3.40;99.90;;;;;;10471485;28;20083;-87
2022/01/14 20:37:04;;;;;;;30.90;12.03;;;3.30;99.90;;;;;;10454117;28;20025;-86
2022/01/14 20:42:06;;;;;;;24.80;11.13;;;3.30;99.90;;;;;;10426375;28;20029;-85
2022/01/14 20:47:08;;;;;;;28.30;12.73;;;3.30;99.90;;;;;;10459602;28;20043;-86
2022/01/14 20:52:11;;;;;;;31.03;13.40;;;3.20;99.90;;;;;;10429657;28;20033;-87
2022/01/14 20:57:12;;;;;;;30.97;12.87;;;3.10;99.90;;;;;;10455667;28;20472;-86
2022/01/14 21:02:13;;;;;;;39.10;13.40;;;3.00;99.90;;;;;;10464669;28;20021;-85
2022/01/14 21:07:14;;;;;;;35.00;14.47;;;2.90;99.90;;;;;;10457862;28;20033;-86
2022/01/14 21:12:14;;;;;;;40.37;14.47;;;2.90;99.90;;;;;;10454390;28;20052;-85
2022/01/14 21:17:15;;;;;;;33.00;14.37;;;2.90;99.90;;;;;;10432472;28;20036;-85
2022/01/14 21:22:17;;;;;;;31.87;13.47;;;2.70;99.90;;;;;;10460940;28;20039;-87
2022/01/14 21:27:18;;;;;;;34.83;12.47;;;2.80;99.90;;;;;;10454947;28;20840;-86
2022/01/14 21:32:20;;;;;;;34.47;15.00;;;2.70;99.90;;;;;;10452066;28;20061;-87
2022/01/14 21:37:20;;;;;;;31.67;12.83;;;2.60;99.90;;;;;;10464993;28;20120;-85
2022/01/14 21:42:21;;;;;;;28.83;11.67;;;2.60;99.90;;;;;;10476985;28;20050;-90
2022/01/14 21:47:22;;;;;;;35.40;14.30;;;2.50;99.90;;;;;;10442401;28;20025;-87
2022/01/14 21:52:24;;;;;;;35.40;13.87;;;2.40;99.90;;;;;;10440239;28;20560;-86
2022/01/14 21:57:30;;;;;;;37.23;13.87;;;2.30;99.90;;;;;;10439760;28;20135;-87
2022/01/14 22:02:31;;;;;;;39.80;15.20;;;2.30;99.90;;;;;;10439361;28;20058;-85
2022/01/14 22:07:35;;;;;;;34.17;14.17;;;2.10;99.90;;;;;;10446879;28;20032;-89
2022/01/14 22:12:39;;;;;;;41.50;14.13;;;2.10;99.90;;;;;;10445512;28;20567;-87
2022/01/14 22:17:42;;;;;;;45.67;15.03;;;2.10;99.90;;;;;;10453479;28;20040;-87
2022/01/14 22:22:43;;;;;;;45.47;14.50;;;2.00;99.90;;;;;;10459427;28;20028;-88
2022/01/14 22:27:44;;;;;;;40.07;15.63;;;2.00;99.90;;;;;;10449421;28;20119;-87
2022/01/14 22:32:44;;;;;;;39.60;14.53;;;1.90;99.90;;;;;;10468520;28;20068;-88
2022/01/14 22:37:45;;;;;;;43.03;15.90;;;1.90;99.90;;;;;;10450357;28;20033;-88
2022/01/14 22:42:46;;;;;;;39.70;15.63;;;1.80;99.90;;;;;;10470583;28;20381;-87
2022/01/14 22:47:47;;;;;;;43.13;15.90;;;1.70;99.90;;;;;;10463326;28;20032;-87
2022/01/14 22:52:47;;;;;;;41.83;16.03;;;1.70;99.90;;;;;;10460576;28;20453;-87
2022/01/14 22:57:48;;;;;;;52.47;18.90;;;1.60;99.90;;;;;;10467782;28;20139;-86
2022/01/14 23:02:50;;;;;;;60.07;22.20;;;1.50;99.90;;;;;;10448742;28;20032;-87
2022/01/14 23:07:50;;;;;;;60.53;22.97;;;1.40;99.90;;;;;;10432867;28;20033;-89
2022/01/14 23:12:52;;;;;;;42.67;16.97;;;1.40;99.90;;;;;;10456730;28;20061;-85
2022/01/14 23:17:53;;;;;;;46.57;16.17;;;1.40;99.90;;;;;;10463731;28;20522;-86
2022/01/14 23:22:54;;;;;;;44.13;18.00;;;1.40;99.90;;;;;;10458102;28;20037;-87
2022/01/14 23:27:55;;;;;;;48.87;19.63;;;1.40;99.90;;;;;;10438268;28;20408;-88
2022/01/14 23:32:55;;;;;;;47.03;17.77;;;1.40;99.90;;;;;;10456060;28;20461;-86
2022/01/14 23:37:56;;;;;;;49.93;17.77;;;1.40;99.90;;;;;;10456688;28;20033;-87
2022/01/14 23:43:09;;;;;;;40.57;15.17;;;1.40;99.90;;;;;;10438035;28;20464;-89
2022/01/14 23:48:09;;;;;;;38.77;14.70;;;1.40;99.90;;;;;;10440872;28;20108;-87
2022/01/14 23:53:10;;;;;;;41.77;14.40;;;1.50;99.90;;;;;;10454657;28;20131;-87
2022/01/14 23:58:11;;;;;;;37.73;12.63;;;1.50;99.90;;;;;;10438305;28;20112;-87
